Fordingbridge, United Kingdom
Current Conditions -  °F | °C
As of 6:20 AM on Friday 19 Dec 2014 (Local Time) from EGHH Reporting Station
Broken Clouds Broken Clouds  
Wind Chill: 54°   Ceiling: 1500
Heat Index: 54°   Visibility: 6mi
Dew Point: 54°   Wind: 16mph
Humidity: 100%   Direction: 260°W
Pressure: 29.85"   Gusts: NA
Location:  50.93°N, 1.79°W
Report Text: EGHH 190620Z 26014KT 9999 FEW012 BKN015 12/12 Q1011
Loading
Personal Weather Stations






























Interactive Weather Map New forecast layout! Learn more

10-Day Weather Forecast

Advertisements
Track Severe Weather on mobile